Time;durP1;ratioP1;P1;durP2;ratioP2;P2;SDS_P1;SDS_P2;PMS_P1;PMS_P2;Temp;Humidity;BMP_temperature;BMP_pressure;BME280_temperature;BME280_humidity;BME280_pressure;Samples;Min_cycle;Max_cycle;Signal;HPM_P1;HPM_P2
2023/08/03 00:04:00;;;;;;;1.10;1.00;;;17.70;99.90;;;;;;8233151;28;20298;-61
2023/08/03 00:08:01;;;;;;;1.30;1.00;;;17.70;99.90;;;;;;8232274;28;20227;-62
2023/08/03 00:12:02;;;;;;;1.40;1.00;;;17.70;1.00;;;;;;8232010;28;20196;-61
2023/08/03 00:16:03;;;;;;;1.60;1.10;;;17.70;99.90;;;;;;8232431;28;20300;-65
2023/08/03 00:20:05;;;;;;;1.50;1.10;;;17.70;1.00;;;;;;8240352;28;20191;-62
2023/08/03 00:24:05;;;;;;;2.40;1.07;;;17.70;99.90;;;;;;8233285;28;20200;-65
2023/08/03 00:28:06;;;;;;;1.73;1.10;;;17.70;99.90;;;;;;8245207;28;20208;-61
2023/08/03 00:32:07;;;;;;;2.30;1.53;;;17.70;58.80;;;;;;8236872;28;20188;-62
2023/08/03 00:36:08;;;;;;;2.87;1.20;;;17.70;1.00;;;;;;8246542;28;20338;-60
2023/08/03 00:40:09;;;;;;;6.93;1.43;;;17.70;1.00;;;;;;8238464;28;20211;-65
2023/08/03 00:44:10;;;;;;;4.17;1.13;;;17.70;1.00;;;;;;8227886;28;20284;-65
2023/08/03 00:48:10;;;;;;;2.17;0.83;;;17.70;1.00;;;;;;8240070;28;20723;-67
2023/08/03 00:52:11;;;;;;;2.93;1.23;;;17.80;99.90;;;;;;8239982;28;20219;-67
2023/08/03 00:56:13;;;;;;;2.33;1.20;;;17.90;99.90;;;;;;8238862;28;20222;-66
2023/08/03 01:00:13;;;;;;;2.17;1.10;;;18.00;99.90;;;;;;8235311;28;20188;-67
2023/08/03 01:04:14;;;;;;;2.40;1.10;;;18.00;99.90;;;;;;8237924;28;20241;-67
2023/08/03 01:08:15;;;;;;;2.50;1.10;;;18.10;99.90;;;;;;8235436;28;20196;-68
2023/08/03 01:12:16;;;;;;;1.60;1.13;;;18.10;99.90;;;;;;8233545;28;20235;-63
2023/08/03 01:16:17;;;;;;;3.40;1.20;;;18.20;99.90;;;;;;8231902;28;20219;-67
2023/08/03 01:20:20;;;;;;;1.87;1.13;;;18.10;99.90;;;;;;8232514;28;20265;-68
2023/08/03 01:24:21;;;;;;;3.10;1.60;;;18.20;99.90;;;;;;8236967;28;20196;-66
2023/08/03 01:28:22;;;;;;;3.00;1.53;;;18.10;99.90;;;;;;8235673;28;20226;-67
2023/08/03 01:32:23;;;;;;;1.23;1.10;;;18.10;99.90;;;;;;8237982;28;20196;-64
2023/08/03 01:36:23;;;;;;;5.23;1.17;;;18.00;99.90;;;;;;8242955;28;20238;-67
2023/08/03 01:40:24;;;;;;;1.50;1.00;;;18.00;99.90;;;;;;8234114;28;20192;-67
2023/08/03 01:44:26;;;;;;;1.97;1.30;;;18.00;99.90;;;;;;8241023;28;20192;-69
2023/08/03 01:48:27;;;;;;;2.20;1.30;;;18.10;99.90;;;;;;8240565;28;20203;-60
2023/08/03 01:52:28;;;;;;;1.90;1.23;;;18.10;99.90;;;;;;8243394;28;20230;-62
2023/08/03 01:56:29;;;;;;;3.03;1.30;;;18.00;97.40;;;;;;8243183;28;20215;-61
2023/08/03 02:00:29;;;;;;;3.20;1.00;;;18.10;66.60;;;;;;8239350;28;20188;-65
2023/08/03 02:04:30;;;;;;;1.87;1.17;;;18.10;32.40;;;;;;8241576;28;20192;-64
2023/08/03 02:08:31;;;;;;;1.80;1.27;;;18.00;17.00;;;;;;8238758;28;20203;-61
2023/08/03 02:12:31;;;;;;;3.83;1.17;;;18.00;7.30;;;;;;8244867;28;20193;-65
2023/08/03 02:16:32;;;;;;;1.93;1.17;;;18.00;1.90;;;;;;8238955;28;20223;-63
2023/08/03 02:20:33;;;;;;;2.67;1.20;;;18.00;1.00;;;;;;8241697;28;20257;-63
2023/08/03 02:24:34;;;;;;;3.47;1.30;;;17.90;3.70;;;;;;8244701;28;20600;-61
2023/08/03 02:28:35;;;;;;;1.73;1.20;;;17.80;17.60;;;;;;8239483;28;20226;-64
2023/08/03 02:32:36;;;;;;;1.90;1.30;;;17.80;19.50;;;;;;8241885;28;20193;-61
2023/08/03 02:36:36;;;;;;;2.03;0.90;;;17.80;21.40;;;;;;8237359;28;20307;-62
2023/08/03 02:40:37;;;;;;;3.30;1.30;;;17.70;22.10;;;;;;8244248;28;20180;-61
2023/08/03 02:44:38;;;;;;;1.80;1.30;;;17.70;21.30;;;;;;8238691;28;20191;-62
2023/08/03 02:48:39;;;;;;;1.43;1.03;;;17.70;16.10;;;;;;8242941;28;20190;-64
2023/08/03 02:52:39;;;;;;;3.60;1.20;;;17.70;20.90;;;;;;8241510;28;20187;-63
2023/08/03 02:56:40;;;;;;;3.57;1.30;;;17.70;28.60;;;;;;8236602;28;20183;-62
2023/08/03 03:00:41;;;;;;;2.77;0.90;;;17.60;31.40;;;;;;8240818;28;20277;-69
2023/08/03 03:04:41;;;;;;;3.57;1.40;;;17.70;30.40;;;;;;8240298;28;20250;-68
2023/08/03 03:08:42;;;;;;;3.80;1.17;;;17.70;22.60;;;;;;8240247;28;20222;-66
2023/08/03 03:12:43;;;;;;;2.63;1.50;;;17.80;5.00;;;;;;8239013;28;20233;-67
2023/08/03 03:16:44;;;;;;;1.80;1.13;;;17.90;1.00;;;;;;8243059;28;20203;-65
2023/08/03 03:20:44;;;;;;;2.90;1.17;;;18.10;1.00;;;;;;8240086;28;20193;-64
2023/08/03 03:24:45;;;;;;;1.93;1.27;;;18.10;1.00;;;;;;8243487;28;20198;-68
2023/08/03 03:28:46;;;;;;;1.87;1.20;;;18.00;1.00;;;;;;8244394;28;20192;-65
2023/08/03 03:32:46;;;;;;;3.10;1.33;;;18.00;1.00;;;;;;8246740;28;20192;-68
2023/08/03 03:36:48;;;;;;;4.13;1.00;;;17.90;1.00;;;;;;8236102;28;20220;-68
2023/08/03 03:40:48;;;;;;;2.73;1.13;;;17.80;1.00;;;;;;8243273;28;20213;-67
2023/08/03 03:44:49;;;;;;;3.60;1.10;;;17.70;1.00;;;;;;8235467;28;20192;-65
2023/08/03 03:48:50;;;;;;;3.20;1.07;;;17.70;1.00;;;;;;8240274;28;20283;-68
2023/08/03 03:52:50;;;;;;;3.40;1.50;;;17.70;1.00;;;;;;8237456;28;20258;-62
2023/08/03 03:56:51;;;;;;;2.30;1.20;;;17.70;1.00;;;;;;8245489;28;20270;-65
2023/08/03 04:00:52;;;;;;;4.93;1.37;;;17.60;1.00;;;;;;8242993;28;20608;-65
2023/08/03 04:04:52;;;;;;;3.43;1.27;;;17.60;1.00;;;;;;8256223;28;20235;-62
2023/08/03 04:08:53;;;;;;;4.47;1.67;;;17.70;1.00;;;;;;8245476;28;20266;-65
2023/08/03 04:12:54;;;;;;;1.90;0.90;;;17.90;1.00;;;;;;8244155;28;20323;-65
2023/08/03 04:16:55;;;;;;;2.17;1.33;;;18.50;1.00;;;;;;8246618;28;20282;-65
2023/08/03 04:20:55;;;;;;;2.70;1.07;;;19.30;1.00;;;;;;8244340;28;20287;-67
2023/08/03 04:24:56;;;;;;;3.43;1.40;;;20.40;1.00;;;;;;8243131;28;20571;-66
2023/08/03 04:28:57;;;;;;;2.20;1.13;;;20.60;1.00;;;;;;8248688;28;20198;-73
2023/08/03 04:32:57;;;;;;;2.67;1.13;;;20.20;1.00;;;;;;8249386;28;20188;-70
2023/08/03 04:36:58;;;;;;;4.27;1.57;;;20.40;1.00;;;;;;8242898;28;20188;-71
2023/08/03 04:41:01;;;;;;;3.03;1.10;;;20.10;1.00;;;;;;8244653;28;20263;-67
2023/08/03 04:45:01;;;;;;;2.23;1.20;;;19.60;1.00;;;;;;8237070;28;20191;-69
2023/08/03 04:49:03;;;;;;;3.80;1.30;;;19.30;1.00;;;;;;8238729;28;20305;-68
2023/08/03 04:53:04;;;;;;;5.83;1.57;;;20.10;1.00;;;;;;8226947;28;20223;-68
2023/08/03 04:57:05;;;;;;;3.53;1.27;;;21.00;1.00;;;;;;8236236;28;20181;-67
2023/08/03 05:01:05;;;;;;;2.83;1.10;;;21.90;1.00;;;;;;8235820;28;20195;-66
2023/08/03 05:05:06;;;;;;;4.00;1.40;;;22.40;1.00;;;;;;8252650;28;20223;-65
2023/08/03 05:09:07;;;;;;;2.20;0.97;;;22.50;1.00;;;;;;8236826;28;20276;-67
2023/08/03 05:13:08;;;;;;;3.40;1.33;;;22.30;1.00;;;;;;8241329;28;20635;-68
2023/08/03 05:17:09;;;;;;;6.57;1.30;;;22.00;1.00;;;;;;8238632;28;20213;-65
2023/08/03 05:21:10;;;;;;;2.83;1.10;;;21.70;1.00;;;;;;8240811;28;20190;-66
2023/08/03 05:25:10;;;;;;;3.13;1.33;;;21.50;1.00;;;;;;8230538;28;20210;-66
2023/08/03 05:29:11;;;;;;;2.83;1.47;;;21.20;1.00;;;;;;8250800;28;20196;-66
2023/08/03 05:33:12;;;;;;;3.10;1.20;;;21.20;1.00;;;;;;8238208;28;20212;-67
2023/08/03 05:37:15;;;;;;;2.10;1.07;;;21.10;1.00;;;;;;8235614;28;20186;-66
2023/08/03 05:41:20;;;;;;;3.33;1.20;;;21.10;1.00;;;;;;8231942;28;20184;-66
2023/08/03 05:45:34;;;;;;;3.23;1.10;;;21.20;1.00;;;;;;8230608;28;20196;-65
2023/08/03 05:49:35;;;;;;;3.63;1.10;;;21.20;1.00;;;;;;8252141;28;20187;-63
2023/08/03 05:53:36;;;;;;;2.53;1.33;;;21.30;1.00;;;;;;8239933;28;20223;-64
2023/08/03 05:57:36;;;;;;;6.13;1.23;;;21.30;1.00;;;;;;8239104;28;20184;-63
2023/08/03 06:01:38;;;;;;;5.10;1.20;;;21.30;1.00;;;;;;8243416;28;20184;-65
2023/08/03 06:05:38;;;;;;;2.27;1.30;;;21.40;1.00;;;;;;8240967;28;20264;-67
2023/08/03 06:09:39;;;;;;;5.80;1.10;;;21.50;1.00;;;;;;8242872;28;20274;-65
2023/08/03 06:13:40;;;;;;;3.80;1.20;;;21.50;1.00;;;;;;8244844;28;20266;-67
2023/08/03 06:17:41;;;;;;;3.67;1.53;;;21.60;1.00;;;;;;8240952;28;20191;-67
2023/08/03 06:21:43;;;;;;;6.60;1.40;;;21.70;1.00;;;;;;8241302;28;20290;-66
2023/08/03 06:25:49;;;;;;;1.70;1.10;;;21.80;1.00;;;;;;8236497;28;20219;-69
2023/08/03 06:29:50;;;;;;;2.87;0.90;;;21.90;1.00;;;;;;8240679;28;20189;-62
2023/08/03 06:33:50;;;;;;;2.87;1.10;;;21.90;1.00;;;;;;8235962;28;20216;-66
2023/08/03 06:37:53;;;;;;;3.97;0.93;;;22.00;1.00;;;;;;8227308;28;20192;-64
2023/08/03 06:41:54;;;;;;;3.43;1.10;;;22.10;1.00;;;;;;8242817;28;20598;-64
2023/08/03 06:45:54;;;;;;;2.90;0.80;;;22.20;1.00;;;;;;8238510;28;20274;-67
2023/08/03 06:49:55;;;;;;;4.90;1.00;;;22.30;1.00;;;;;;8238279;28;20202;-63
2023/08/03 06:53:56;;;;;;;4.57;1.40;;;22.40;1.00;;;;;;8222341;28;20583;-65
2023/08/03 06:57:57;;;;;;;2.63;1.00;;;22.50;1.00;;;;;;8237165;28;20197;-63
2023/08/03 07:01:57;;;;;;;3.63;1.00;;;22.40;99.90;;;;;;8240454;28;20260;-65
2023/08/03 07:05:59;;;;;;;4.57;0.80;;;22.50;99.90;;;;;;8228695;28;20192;-65
2023/08/03 07:10:00;;;;;;;2.90;0.93;;;22.60;99.90;;;;;;8236003;28;20208;-66
2023/08/03 07:14:00;;;;;;;7.77;1.00;;;22.70;99.90;;;;;;8236339;28;20215;-66
2023/08/03 07:18:05;;;;;;;3.13;0.70;;;22.80;99.90;;;;;;8235306;28;20227;-66
2023/08/03 07:22:06;;;;;;;6.90;1.57;;;22.90;99.90;;;;;;8231568;28;20255;-63
2023/08/03 07:26:14;;;;;;;10.33;1.67;;;23.00;99.90;;;;;;8230780;28;20192;-66
2023/08/03 07:30:15;;;;;;;3.27;1.00;;;22.90;99.90;;;;;;8234931;28;20214;-66
2023/08/03 07:34:16;;;;;;;3.50;1.13;;;23.00;99.90;;;;;;8232529;28;20203;-69
2023/08/03 07:38:16;;;;;;;2.67;0.80;;;23.00;99.90;;;;;;8236936;28;20187;-65
2023/08/03 07:42:17;;;;;;;2.53;0.70;;;23.10;99.90;;;;;;8232362;28;20195;-67
2023/08/03 07:46:18;;;;;;;4.57;1.10;;;23.20;99.90;;;;;;8230560;28;20618;-66
2023/08/03 07:50:18;;;;;;;4.30;0.90;;;23.20;99.90;;;;;;8238006;28;20192;-66
2023/08/03 07:54:19;;;;;;;4.10;0.80;;;23.30;99.90;;;;;;8241320;28;20262;-65
2023/08/03 07:58:20;;;;;;;4.23;0.90;;;23.40;99.90;;;;;;8241033;28;20270;-68
2023/08/03 08:02:21;;;;;;;3.53;0.80;;;23.50;99.90;;;;;;8238571;28;20195;-66
2023/08/03 08:06:22;;;;;;;4.40;0.73;;;23.50;99.90;;;;;;8239635;28;20187;-64
2023/08/03 08:10:23;;;;;;;1.63;0.70;;;23.70;99.90;;;;;;8240229;28;20207;-69
2023/08/03 08:14:24;;;;;;;1.97;0.90;;;23.90;99.90;;;;;;8240413;28;20223;-67
2023/08/03 08:18:24;;;;;;;8.33;1.10;;;24.20;99.90;;;;;;8236544;28;20184;-65
2023/08/03 08:22:25;;;;;;;4.60;0.80;;;24.20;99.90;;;;;;8239709;28;20475;-67
2023/08/03 08:26:28;;;;;;;4.23;0.77;;;24.30;99.90;;;;;;8237513;28;20199;-67
2023/08/03 08:30:29;;;;;;;4.50;0.90;;;24.50;99.90;;;;;;8226637;28;20188;-66
2023/08/03 08:34:30;;;;;;;3.13;0.87;;;24.30;99.90;;;;;;8232239;28;20277;-65
2023/08/03 08:38:31;;;;;;;3.20;1.10;;;24.20;99.90;;;;;;8236668;28;20184;-66
2023/08/03 08:42:32;;;;;;;2.53;1.00;;;24.20;99.90;;;;;;8233079;28;20226;-66
2023/08/03 08:46:32;;;;;;;4.90;0.93;;;24.50;99.90;;;;;;8239558;28;20198;-66
2023/08/03 08:50:33;;;;;;;4.27;1.00;;;24.60;99.90;;;;;;8241570;28;20350;-67
2023/08/03 08:54:34;;;;;;;5.20;0.90;;;24.50;99.90;;;;;;8239819;28;20227;-65
2023/08/03 08:58:35;;;;;;;3.30;0.67;;;24.50;99.90;;;;;;8239657;28;20215;-64
2023/08/03 09:02:36;;;;;;;2.73;1.20;;;24.80;99.90;;;;;;8243656;28;20188;-64
2023/08/03 09:06:43;;;;;;;2.80;1.00;;;25.00;99.90;;;;;;8229758;28;20555;-64
2023/08/03 09:10:55;;;;;;;3.53;0.90;;;24.90;99.90;;;;;;8232395;28;20211;-63
2023/08/03 09:14:57;;;;;;;2.00;0.87;;;24.70;99.90;;;;;;8234023;28;20257;-64
2023/08/03 09:18:58;;;;;;;3.20;0.83;;;24.60;99.90;;;;;;8237034;28;20207;-65
2023/08/03 09:23:00;;;;;;;4.10;0.60;;;24.50;99.90;;;;;;8241045;28;20183;-66
2023/08/03 09:27:01;;;;;;;6.40;1.00;;;24.60;99.90;;;;;;8228684;28;20497;-65
2023/08/03 09:31:02;;;;;;;1.40;0.60;;;24.70;99.90;;;;;;8238316;28;20191;-64
2023/08/03 09:45:48;;;;;;;3.10;1.05;;;25.80;99.90;;;;;;8413334;27;20306;-68
2023/08/03 09:49:50;;;;;;;2.75;1.00;;;25.90;99.90;;;;;;8413345;28;20275;-66
2023/08/03 09:53:58;;;;;;;3.65;0.88;;;25.80;99.90;;;;;;8402615;28;20195;-66
2023/08/03 09:58:13;;;;;;;4.55;1.20;;;25.60;99.90;;;;;;8436458;27;20185;-63
2023/08/03 10:02:17;;;;;;;4.35;0.80;;;25.40;99.90;;;;;;8422711;28;20235;-64
2023/08/03 10:06:22;;;;;;;2.63;0.88;;;25.10;99.90;;;;;;8410757;28;20186;-67
2023/08/03 10:10:25;;;;;;;2.50;0.70;;;25.20;99.90;;;;;;8413799;28;20208;-64
2023/08/03 10:14:31;;;;;;;2.92;0.90;;;25.10;99.90;;;;;;8419136;28;20215;-66
2023/08/03 10:18:35;;;;;;;2.55;0.90;;;25.10;99.90;;;;;;8417130;28;20254;-66
2023/08/03 10:22:36;;;;;;;2.28;0.98;;;25.40;99.90;;;;;;8419675;28;20181;-65
2023/08/03 10:26:37;;;;;;;2.05;0.80;;;25.30;99.90;;;;;;8420235;28;20282;-65
2023/08/03 10:31:10;;;;;;;1.83;0.90;;;25.10;99.90;;;;;;8413457;28;20487;-66
2023/08/03 10:35:37;;;;;;;5.30;0.88;;;25.50;99.90;;;;;;8412440;28;20231;-65
2023/08/03 10:39:46;;;;;;;1.63;0.70;;;25.60;99.90;;;;;;8419233;28;20179;-67
2023/08/03 10:44:05;;;;;;;5.55;0.77;;;25.80;99.90;;;;;;8409785;28;20287;-67
2023/08/03 10:48:29;;;;;;;5.93;1.23;;;25.70;99.90;;;;;;8404673;28;20238;-67
2023/08/03 10:52:31;;;;;;;2.08;0.47;;;25.80;99.90;;;;;;8410819;28;20208;-67
2023/08/03 10:56:31;;;;;;;2.42;0.70;;;26.30;99.90;;;;;;8387341;28;20282;-70
2023/08/03 11:00:32;;;;;;;6.70;0.82;;;25.80;99.90;;;;;;8386546;28;20180;-66
2023/08/03 11:04:34;;;;;;;2.88;0.52;;;25.00;99.90;;;;;;8385368;28;20197;-65
2023/08/03 11:08:36;;;;;;;1.87;0.80;;;24.50;99.90;;;;;;8390210;28;20254;-65
2023/08/03 11:12:39;;;;;;;2.63;0.60;;;24.30;99.90;;;;;;8386622;28;20201;-67
2023/08/03 11:16:40;;;;;;;2.87;0.50;;;24.40;99.90;;;;;;8382268;28;20189;-66
2023/08/03 11:20:42;;;;;;;2.42;0.80;;;24.80;99.90;;;;;;8390337;28;20180;-67
2023/08/03 11:24:43;;;;;;;3.00;0.70;;;25.30;99.90;;;;;;8386205;28;20185;-66
2023/08/03 11:28:44;;;;;;;2.67;0.60;;;25.60;99.90;;;;;;8386437;28;20318;-66
2023/08/03 11:32:45;;;;;;;1.15;0.30;;;25.50;99.90;;;;;;8387523;28;20212;-67
2023/08/03 11:36:50;;;;;;;1.92;0.60;;;25.20;99.90;;;;;;8395223;28;20267;-65
2023/08/03 11:40:51;;;;;;;1.40;0.50;;;25.60;99.90;;;;;;8398530;28;20318;-63
2023/08/03 11:44:52;;;;;;;2.15;0.60;;;26.30;99.90;;;;;;8395910;28;20667;-67
2023/08/03 11:48:56;;;;;;;3.40;0.65;;;26.10;99.90;;;;;;8399660;28;20189;-64
2023/08/03 11:53:00;;;;;;;3.60;0.70;;;26.00;99.90;;;;;;8392741;28;20197;-63
2023/08/03 12:01:28;;;;;;;2.17;0.50;;;26.40;99.90;;;;;;8388501;28;20227;-65
2023/08/03 12:05:41;;;;;;;1.23;0.40;;;26.30;99.90;;;;;;8382177;28;20299;-65
2023/08/03 12:09:42;;;;;;;2.45;0.50;;;25.70;99.90;;;;;;8384595;28;20219;-64
2023/08/03 12:13:43;;;;;;;4.65;0.60;;;25.00;99.90;;;;;;8392026;28;20223;-64
2023/08/03 12:17:44;;;;;;;1.90;0.70;;;25.10;99.90;;;;;;8388841;28;20720;-67
2023/08/03 12:21:45;;;;;;;1.20;0.57;;;25.40;99.90;;;;;;8390713;28;20187;-68
2023/08/03 12:25:47;;;;;;;2.70;0.45;;;25.80;99.90;;;;;;8395337;28;20313;-65
2023/08/03 12:29:48;;;;;;;2.22;0.50;;;26.00;99.90;;;;;;8389440;28;20193;-65
2023/08/03 12:33:49;;;;;;;1.05;0.43;;;26.30;99.90;;;;;;8383176;28;20212;-65
2023/08/03 12:37:52;;;;;;;2.08;0.30;;;26.90;99.90;;;;;;8386259;28;20209;-66
2023/08/03 12:41:52;;;;;;;3.20;0.70;;;27.20;99.90;;;;;;8383595;28;20181;-67
2023/08/03 12:45:53;;;;;;;3.15;0.52;;;27.20;99.90;;;;;;8378209;28;20224;-67
2023/08/03 12:49:57;;;;;;;3.80;0.50;;;26.50;99.90;;;;;;8379882;28;20238;-65
2023/08/03 12:53:58;;;;;;;1.65;0.40;;;25.80;99.90;;;;;;8377017;28;20213;-66
2023/08/03 12:57:59;;;;;;;3.05;0.30;;;25.80;99.90;;;;;;8386542;28;20536;-63
2023/08/03 13:01:59;;;;;;;1.30;0.15;;;25.30;99.90;;;;;;8377746;28;20284;-65
2023/08/03 13:06:00;;;;;;;2.58;0.40;;;25.20;99.90;;;;;;8382028;28;20394;-65
2023/08/03 13:10:01;;;;;;;1.27;0.30;;;25.40;99.90;;;;;;8383293;28;20200;-65
2023/08/03 13:14:02;;;;;;;2.50;0.40;;;25.50;99.90;;;;;;8388893;28;20224;-64
2023/08/03 13:18:03;;;;;;;3.55;0.28;;;25.40;99.90;;;;;;8391882;28;20185;-66
2023/08/03 13:22:03;;;;;;;1.83;0.15;;;25.50;99.90;;;;;;8384501;28;20185;-65
2023/08/03 13:26:04;;;;;;;2.60;0.32;;;25.80;99.90;;;;;;8382803;28;20185;-64
2023/08/03 13:30:06;;;;;;;1.73;0.10;;;25.90;99.90;;;;;;8381029;28;20281;-65
2023/08/03 13:34:06;;;;;;;1.05;0.35;;;26.00;99.90;;;;;;8380040;28;20205;-66
2023/08/03 13:38:07;;;;;;;1.38;0.30;;;26.10;99.90;;;;;;8383024;28;20485;-65
2023/08/03 13:42:08;;;;;;;1.73;0.30;;;26.30;99.90;;;;;;8382982;28;20196;-66
2023/08/03 13:46:09;;;;;;;2.55;0.80;;;26.60;99.90;;;;;;8379730;28;20230;-62
2023/08/03 13:50:10;;;;;;;2.67;0.47;;;26.80;99.90;;;;;;8387115;28;20177;-64
2023/08/03 13:54:11;;;;;;;1.23;0.40;;;27.00;99.90;;;;;;8383814;28;20226;-63
2023/08/03 13:58:12;;;;;;;0.52;0.13;;;27.30;99.90;;;;;;8395632;28;20180;-66
2023/08/03 14:02:13;;;;;;;0.82;0.20;;;27.30;99.90;;;;;;8396189;28;20191;-67
2023/08/03 14:06:14;;;;;;;1.33;0.13;;;27.00;99.90;;;;;;8384730;28;20185;-67
2023/08/03 14:10:15;;;;;;;2.72;0.30;;;26.80;99.90;;;;;;8392459;28;20204;-65
2023/08/03 14:14:15;;;;;;;1.27;0.28;;;26.80;99.90;;;;;;8391524;28;20241;-65
2023/08/03 14:18:16;;;;;;;2.67;0.30;;;26.70;99.90;;;;;;8395756;28;20189;-69
2023/08/03 14:22:17;;;;;;;2.15;0.40;;;26.60;99.90;;;;;;8388900;28;20637;-69
2023/08/03 14:26:18;;;;;;;1.20;0.40;;;26.60;99.90;;;;;;8391763;28;20189;-67
2023/08/03 14:30:19;;;;;;;1.00;0.28;;;26.50;99.90;;;;;;8397196;28;20275;-67
2023/08/03 14:34:19;;;;;;;2.15;0.40;;;26.30;99.90;;;;;;8400021;28;20215;-66
2023/08/03 14:38:21;;;;;;;1.52;0.40;;;26.30;99.90;;;;;;8398037;28;20177;-67
2023/08/03 14:42:22;;;;;;;1.08;0.35;;;26.10;99.90;;;;;;8399253;28;20192;-68
2023/08/03 14:46:23;;;;;;;1.08;0.40;;;26.10;99.90;;;;;;8397678;28;20189;-67
2023/08/03 14:50:24;;;;;;;0.93;0.43;;;26.40;99.90;;;;;;8401843;28;20238;-67
2023/08/03 14:54:25;;;;;;;2.97;0.32;;;26.60;99.90;;;;;;8400473;28;20266;-68
2023/08/03 14:58:26;;;;;;;0.70;0.40;;;26.40;99.90;;;;;;8400129;28;20234;-66
2023/08/03 15:02:28;;;;;;;2.17;0.40;;;26.40;99.90;;;;;;8394332;28;20256;-69
2023/08/03 15:06:29;;;;;;;0.93;0.40;;;26.30;99.90;;;;;;8395573;28;21205;-69
2023/08/03 15:10:30;;;;;;;3.25;0.73;;;26.60;99.90;;;;;;8402629;28;20208;-64
2023/08/03 15:14:31;;;;;;;2.80;0.50;;;26.50;99.90;;;;;;8397457;28;20522;-65
2023/08/03 15:18:31;;;;;;;0.60;0.40;;;26.20;99.90;;;;;;8399292;28;20212;-66
2023/08/03 15:22:32;;;;;;;1.35;0.40;;;26.00;99.90;;;;;;8392489;28;20223;-63
2023/08/03 15:26:33;;;;;;;2.88;0.47;;;25.60;99.90;;;;;;8392619;28;20185;-63
2023/08/03 15:30:34;;;;;;;0.80;0.30;;;25.70;99.90;;;;;;8398420;28;20580;-65
2023/08/03 15:34:35;;;;;;;1.98;0.50;;;25.90;99.90;;;;;;8393831;28;20350;-65
2023/08/03 15:38:40;;;;;;;1.60;0.40;;;26.00;99.90;;;;;;8397114;28;20281;-62
2023/08/03 15:42:41;;;;;;;2.25;0.35;;;25.80;99.90;;;;;;8392500;28;20206;-64
2023/08/03 15:46:42;;;;;;;5.45;0.77;;;25.70;99.90;;;;;;8389264;28;20181;-65
2023/08/03 15:50:44;;;;;;;1.30;0.40;;;25.60;99.90;;;;;;8389398;28;20263;-64
2023/08/03 15:54:44;;;;;;;3.50;0.30;;;25.80;99.90;;;;;;8387686;28;20513;-65
2023/08/03 15:58:45;;;;;;;1.48;0.40;;;26.00;99.90;;;;;;8386467;28;20230;-65
2023/08/03 16:02:46;;;;;;;2.03;0.50;;;26.00;99.90;;;;;;8393735;28;20224;-64
2023/08/03 16:06:46;;;;;;;1.83;0.47;;;25.90;99.90;;;;;;8387401;28;20185;-64
2023/08/03 16:10:47;;;;;;;0.43;0.20;;;25.80;99.90;;;;;;8392477;28;20290;-64
2023/08/03 16:14:48;;;;;;;1.63;0.30;;;25.60;99.90;;;;;;8394685;28;20208;-66
2023/08/03 16:18:48;;;;;;;0.90;0.30;;;25.40;99.90;;;;;;8397810;28;20192;-68
2023/08/03 16:22:49;;;;;;;0.93;0.30;;;25.40;99.90;;;;;;8395786;28;20211;-66
2023/08/03 16:26:53;;;;;;;1.13;0.20;;;25.20;99.90;;;;;;8392988;28;20244;-65
2023/08/03 16:30:54;;;;;;;4.80;0.70;;;25.00;99.90;;;;;;8391893;28;20270;-66
2023/08/03 16:34:56;;;;;;;0.73;0.20;;;24.90;99.90;;;;;;8388120;28;20255;-66
2023/08/03 16:38:56;;;;;;;1.07;0.30;;;24.70;99.90;;;;;;8396651;28;20292;-67
2023/08/03 16:42:57;;;;;;;0.97;0.40;;;24.60;99.90;;;;;;8393552;28;20206;-68
2023/08/03 16:46:58;;;;;;;0.83;0.37;;;24.60;99.90;;;;;;8390252;28;20188;-66
2023/08/03 16:50:58;;;;;;;2.07;0.23;;;24.50;99.90;;;;;;8394495;28;20188;-66
2023/08/03 16:54:59;;;;;;;3.97;0.30;;;24.30;99.90;;;;;;8392062;28;20234;-67
2023/08/03 16:59:02;;;;;;;0.80;0.50;;;24.30;99.90;;;;;;8391968;28;20192;-68
2023/08/03 17:03:02;;;;;;;0.90;0.33;;;24.30;99.90;;;;;;8392256;28;20193;-66
2023/08/03 17:07:03;;;;;;;0.80;0.33;;;24.30;99.90;;;;;;8391092;28;20238;-65
2023/08/03 17:11:04;;;;;;;1.10;0.33;;;24.30;99.90;;;;;;8389373;28;20258;-66
2023/08/03 17:15:05;;;;;;;1.33;0.50;;;24.10;99.90;;;;;;8392166;28;20212;-65
2023/08/03 17:19:06;;;;;;;1.37;0.53;;;24.00;99.90;;;;;;8386380;28;20195;-66
2023/08/03 17:23:07;;;;;;;0.93;0.50;;;23.90;99.90;;;;;;8393036;28;20187;-67
2023/08/03 17:27:08;;;;;;;0.70;0.40;;;23.80;99.90;;;;;;8387587;28;20184;-68
2023/08/03 17:31:08;;;;;;;1.07;0.50;;;23.60;99.90;;;;;;8389588;28;20185;-65
2023/08/03 17:35:09;;;;;;;1.67;0.30;;;23.40;99.90;;;;;;8393865;28;20212;-63
2023/08/03 17:39:10;;;;;;;0.87;0.30;;;23.30;99.90;;;;;;8392146;28;20544;-64
2023/08/03 17:43:11;;;;;;;1.70;0.40;;;23.80;99.90;;;;;;8390846;28;20289;-61
2023/08/03 17:47:12;;;;;;;0.57;0.30;;;24.00;99.90;;;;;;8392593;28;20202;-61
2023/08/03 17:51:13;;;;;;;1.93;0.27;;;24.00;99.90;;;;;;8397521;28;20303;-62
2023/08/03 17:55:14;;;;;;;1.23;0.40;;;24.50;99.90;;;;;;8393683;28;20204;-61
2023/08/03 17:59:15;;;;;;;4.43;0.30;;;24.20;99.90;;;;;;8393248;28;20241;-64
2023/08/03 18:03:15;;;;;;;2.60;0.30;;;23.80;99.90;;;;;;8388854;28;20195;-63
2023/08/03 18:07:17;;;;;;;1.57;0.40;;;23.40;99.90;;;;;;8390731;28;20184;-63
2023/08/03 18:11:18;;;;;;;1.57;0.50;;;23.20;99.90;;;;;;8392633;28;20239;-64
2023/08/03 18:15:19;;;;;;;1.97;0.40;;;23.20;99.90;;;;;;8391244;28;20213;-61
2023/08/03 18:19:19;;;;;;;1.80;0.43;;;23.00;99.90;;;;;;8388850;28;20184;-62
2023/08/03 18:23:21;;;;;;;2.20;0.50;;;22.60;99.90;;;;;;8393949;28;20212;-62
2023/08/03 18:27:22;;;;;;;0.53;0.30;;;22.30;99.90;;;;;;8388406;28;20184;-60
2023/08/03 18:31:23;;;;;;;1.20;0.40;;;22.10;99.90;;;;;;8403455;28;20188;-65
2023/08/03 18:35:24;;;;;;;2.10;0.60;;;21.90;99.90;;;;;;8386439;28;20216;-64
2023/08/03 18:39:25;;;;;;;0.67;0.37;;;21.70;99.90;;;;;;8381389;28;20188;-64
2023/08/03 18:43:26;;;;;;;1.07;0.43;;;21.50;99.90;;;;;;8386364;28;20227;-60
2023/08/03 18:47:26;;;;;;;2.70;0.67;;;21.20;99.90;;;;;;8394667;28;20341;-61
2023/08/03 18:51:27;;;;;;;1.30;0.90;;;21.00;99.90;;;;;;8394796;28;20202;-61
2023/08/03 18:55:28;;;;;;;3.60;0.50;;;20.80;99.90;;;;;;8399856;28;20215;-61
2023/08/03 18:59:29;;;;;;;3.50;0.70;;;20.70;99.90;;;;;;8401930;28;20220;-62
2023/08/03 19:03:31;;;;;;;1.60;0.63;;;20.60;99.90;;;;;;8393257;28;20188;-64
2023/08/03 19:07:32;;;;;;;1.70;0.40;;;20.50;99.90;;;;;;8399618;28;20234;-63
2023/08/03 19:11:33;;;;;;;3.33;0.73;;;20.40;99.90;;;;;;8399301;28;20200;-61
2023/08/03 19:15:34;;;;;;;2.23;0.50;;;20.30;99.90;;;;;;8396442;28;20331;-61
2023/08/03 19:19:35;;;;;;;3.43;0.50;;;20.20;99.90;;;;;;8402618;28;20181;-62
2023/08/03 19:23:35;;;;;;;1.03;0.50;;;20.10;99.90;;;;;;8407676;28;20180;-61
2023/08/03 19:27:36;;;;;;;0.87;0.50;;;20.00;99.90;;;;;;8399291;28;20218;-62
2023/08/03 19:31:37;;;;;;;2.50;0.60;;;19.80;99.90;;;;;;8402405;28;20184;-61
2023/08/03 19:35:43;;;;;;;0.90;0.50;;;19.70;99.90;;;;;;8395986;28;20204;-61
2023/08/03 19:39:44;;;;;;;1.63;0.57;;;19.60;99.90;;;;;;8400314;28;20176;-63
2023/08/03 19:43:45;;;;;;;2.40;0.50;;;19.50;99.90;;;;;;8391062;28;20200;-60
2023/08/03 19:47:46;;;;;;;2.13;0.50;;;19.40;99.90;;;;;;8401514;28;20302;-62
2023/08/03 19:51:47;;;;;;;0.87;0.50;;;19.20;99.90;;;;;;8399728;28;20266;-62
2023/08/03 19:55:50;;;;;;;0.70;0.50;;;19.10;99.90;;;;;;8396734;28;20253;-62
2023/08/03 19:59:52;;;;;;;1.37;0.43;;;19.00;99.90;;;;;;8399327;28;20181;-63
2023/08/03 20:03:52;;;;;;;0.80;0.40;;;18.80;99.90;;;;;;8400161;28;20184;-63
2023/08/03 20:07:54;;;;;;;0.80;0.50;;;18.70;99.90;;;;;;8401665;28;20191;-62
2023/08/03 20:11:54;;;;;;;1.37;0.50;;;18.60;99.90;;;;;;8399328;28;20209;-63
2023/08/03 20:15:56;;;;;;;0.80;0.43;;;18.40;99.90;;;;;;8398344;28;20295;-59
2023/08/03 20:19:57;;;;;;;1.83;0.57;;;18.30;99.90;;;;;;8396374;28;20176;-66
2023/08/03 20:23:57;;;;;;;1.53;0.60;;;18.20;99.90;;;;;;8392747;28;20200;-66
2023/08/03 20:27:58;;;;;;;3.00;0.70;;;18.10;99.90;;;;;;8395276;28;20196;-64
2023/08/03 20:32:00;;;;;;;2.63;0.53;;;18.00;99.90;;;;;;8394429;28;20220;-63
2023/08/03 20:36:01;;;;;;;1.57;0.60;;;18.00;99.90;;;;;;8391913;28;20242;-67
2023/08/03 20:40:04;;;;;;;1.20;0.50;;;18.00;99.90;;;;;;8397318;28;20185;-65
2023/08/03 20:44:05;;;;;;;2.47;0.53;;;17.90;99.90;;;;;;8392304;28;20229;-65
2023/08/03 20:48:06;;;;;;;0.80;0.37;;;17.90;99.90;;;;;;8393707;28;20239;-65
2023/08/03 20:52:06;;;;;;;2.10;0.80;;;17.80;99.90;;;;;;8393521;28;20268;-64
2023/08/03 20:56:07;;;;;;;1.47;0.50;;;17.80;99.90;;;;;;8394148;28;20225;-64
2023/08/03 21:00:08;;;;;;;3.60;0.50;;;17.70;99.90;;;;;;8395974;28;20225;-64
2023/08/03 21:04:09;;;;;;;2.00;0.30;;;17.70;99.90;;;;;;8390838;28;20227;-66
2023/08/03 21:08:10;;;;;;;1.87;0.50;;;17.70;99.90;;;;;;8394185;28;20180;-67
2023/08/03 21:12:11;;;;;;;3.97;0.50;;;17.70;99.90;;;;;;8395953;28;20193;-65
2023/08/03 21:16:13;;;;;;;1.10;0.57;;;17.60;99.90;;;;;;8392676;28;20213;-65